Terminal Aerodrome Forecast
Issued by NWS Charleston, WV

Current Version | Previous Version | Text Only | Print | Product List | Glossary Off
Versions: 1 2 3 4 5 6 7 8 9 10 11 12 13 14 15 16 17 18 19 20 21 22 23 24 25 26 27 28

000
FTUS41 KRLX 270236 AAA
TAFBKW
TAF AMD
KBKW 270236Z 2703/2724 00000KT P6SM BKN100
     FM271300 00000KT 6SM HZ BKN090
     FM271800 28004KT 6SM HZ VCTS BKN035CB=

USA.gov is the U.S. government's official web portal to all federal, state and local government web resources and services.